createdAt,value
2022-08-19T00:00:11.138Z,1.60
2022-08-19T00:02:58.945Z,1.40
2022-08-19T00:05:26.923Z,1.60
2022-08-19T00:07:54.893Z,2.30
2022-08-19T00:10:22.853Z,1.50
2022-08-19T00:12:50.774Z,1.70
2022-08-19T00:15:22.063Z,1.90
2022-08-19T00:17:50.389Z,1.80
2022-08-19T00:20:22.163Z,1.70
2022-08-19T00:22:51.128Z,2.20
2022-08-19T00:25:19.446Z,2.00
2022-08-19T00:27:59.905Z,2.20
2022-08-19T00:30:30.463Z,1.90
2022-08-19T00:32:59.066Z,1.90
2022-08-19T00:35:28.340Z,2.10
2022-08-19T00:37:57.143Z,2.80
2022-08-19T00:40:26.073Z,2.80
2022-08-19T00:42:54.842Z,2.90
2022-08-19T00:45:27.295Z,3.30
2022-08-19T00:47:55.159Z,2.60
2022-08-19T00:50:24.119Z,3.10
2022-08-19T00:52:53.633Z,3.10
2022-08-19T00:55:29.730Z,3.40
2022-08-19T00:58:03.855Z,3.30
2022-08-19T01:00:32.843Z,3.20
2022-08-19T01:03:00.890Z,3.80
2022-08-19T01:05:30.694Z,3.20
2022-08-19T01:08:02.774Z,3.30
2022-08-19T01:10:38.134Z,3.90
2022-08-19T01:13:06.627Z,4.10
2022-08-19T01:15:45.754Z,3.60
2022-08-19T01:18:17.772Z,3.70
2022-08-19T01:20:46.556Z,3.20
2022-08-19T01:23:16.434Z,3.70
2022-08-19T01:25:54.704Z,3.20
2022-08-19T01:28:34.149Z,4.00
2022-08-19T01:31:26.503Z,3.50
2022-08-19T01:33:58.549Z,3.50
2022-08-19T01:36:43.979Z,3.30
2022-08-19T01:39:17.867Z,3.40
2022-08-19T01:41:46.583Z,3.40
2022-08-19T01:44:19.265Z,3.20
2022-08-19T01:46:49.564Z,3.50
2022-08-19T01:49:20.855Z,3.80
2022-08-19T01:51:50.671Z,3.20
2022-08-19T01:54:27.922Z,3.70
2022-08-19T01:57:12.342Z,3.70
2022-08-19T01:59:43.234Z,3.70
2022-08-19T02:02:11.464Z,4.00
2022-08-19T02:04:39.762Z,3.90
2022-08-19T02:07:09.086Z,4.00
2022-08-19T02:09:37.296Z,3.60
2022-08-19T02:12:08.847Z,4.30
2022-08-19T02:14:38.000Z,3.30
2022-08-19T02:17:05.837Z,3.30
2022-08-19T02:19:34.083Z,3.20
2022-08-19T02:22:01.957Z,3.40
2022-08-19T02:24:29.822Z,3.60
2022-08-19T02:26:58.313Z,2.70
2022-08-19T02:29:26.263Z,3.40
2022-08-19T02:31:54.083Z,2.90
2022-08-19T02:34:21.940Z,3.20
2022-08-19T02:36:51.758Z,3.60
2022-08-19T02:39:19.907Z,3.60
2022-08-19T02:41:47.807Z,3.10
2022-08-19T02:44:30.561Z,3.40
2022-08-19T02:46:59.653Z,3.90
2022-08-19T02:49:27.439Z,3.40
2022-08-19T02:51:55.336Z,4.60
2022-08-19T02:54:23.301Z,3.70
2022-08-19T02:56:51.126Z,3.90
2022-08-19T02:59:21.122Z,3.90
2022-08-19T03:01:51.118Z,4.00
2022-08-19T03:04:20.494Z,3.90
2022-08-19T03:06:48.774Z,4.00
2022-08-19T03:09:20.586Z,3.70
2022-08-19T03:11:48.772Z,3.90
2022-08-19T03:14:20.683Z,3.90
2022-08-19T03:16:52.947Z,3.70
2022-08-19T03:19:24.756Z,4.00
2022-08-19T03:21:53.260Z,3.70
2022-08-19T03:24:21.796Z,3.70
2022-08-19T03:26:58.329Z,4.30
2022-08-19T03:29:31.794Z,4.70
2022-08-19T03:32:04.862Z,4.30
2022-08-19T03:34:37.567Z,3.90
2022-08-19T03:37:13.454Z,3.90
2022-08-19T03:39:43.317Z,4.80
2022-08-19T03:42:38.594Z,3.90
2022-08-19T03:45:00.217Z,3.70
2022-08-19T03:47:28.037Z,3.90
2022-08-19T03:49:55.883Z,3.10
2022-08-19T03:52:23.754Z,3.10
2022-08-19T03:54:51.544Z,3.00
2022-08-19T03:57:19.578Z,3.50
2022-08-19T03:59:47.604Z,3.00
2022-08-19T04:02:15.462Z,3.00
2022-08-19T04:04:45.098Z,2.80
2022-08-19T04:07:22.374Z,2.70
2022-08-19T04:09:51.407Z,2.40
2022-08-19T04:12:20.935Z,1.90
2022-08-19T04:14:48.886Z,1.70
2022-08-19T04:17:16.843Z,1.40
2022-08-19T04:19:45.527Z,1.50
2022-08-19T04:22:13.554Z,1.60
2022-08-19T04:24:41.356Z,1.40
2022-08-19T04:27:09.140Z,1.30
2022-08-19T04:29:40.484Z,1.40
2022-08-19T04:32:09.805Z,1.50
2022-08-19T04:35:01.128Z,1.90
2022-08-19T04:37:34.996Z,1.70
2022-08-19T04:40:25.167Z,2.50
2022-08-19T04:42:54.562Z,1.90
2022-08-19T04:45:23.247Z,1.90
2022-08-19T04:48:26.704Z,2.40
2022-08-19T04:50:49.226Z,1.90
2022-08-19T04:53:17.084Z,2.00
2022-08-19T04:55:44.899Z,2.10
2022-08-19T04:58:12.694Z,2.20
2022-08-19T05:00:41.021Z,2.00
2022-08-19T05:03:09.565Z,2.00
2022-08-19T05:05:45.691Z,1.90
2022-08-19T05:08:31.313Z,2.20
2022-08-19T05:10:59.651Z,1.90
2022-08-19T05:13:28.165Z,1.70
2022-08-19T05:15:59.026Z,1.70
2022-08-19T05:18:45.950Z,1.60
2022-08-19T05:21:36.278Z,1.70
2022-08-19T05:24:09.953Z,1.60
2022-08-19T05:26:40.430Z,1.80
2022-08-19T05:29:09.490Z,1.70
2022-08-19T05:31:39.481Z,2.00
2022-08-19T05:34:20.082Z,1.70
2022-08-19T05:36:50.674Z,1.70
2022-08-19T05:39:21.568Z,1.40
2022-08-19T05:41:58.244Z,1.20
2022-08-19T05:44:32.391Z,1.20
2022-08-19T05:47:03.474Z,1.40
2022-08-19T05:52:09.194Z,1.60
2022-08-19T05:54:42.653Z,1.40
2022-08-19T05:57:11.735Z,1.40
2022-08-19T05:59:41.198Z,1.10
2022-08-19T06:02:09.234Z,1.60
2022-08-19T06:04:37.127Z,1.20
2022-08-19T06:07:12.230Z,1.20
2022-08-19T06:09:43.704Z,1.20
2022-08-19T06:12:35.284Z,1.20
2022-08-19T06:15:10.890Z,1.30
2022-08-19T06:17:39.626Z,1.00
2022-08-19T06:20:12.948Z,1.10
2022-08-19T06:22:47.484Z,1.30
2022-08-19T06:25:16.411Z,1.10
2022-08-19T06:28:11.531Z,1.00
2022-08-19T06:30:33.555Z,1.20
2022-08-19T06:33:01.408Z,1.40
2022-08-19T06:35:30.496Z,1.30
2022-08-19T06:37:58.558Z,1.40
2022-08-19T06:40:28.494Z,1.20
2022-08-19T06:42:57.401Z,1.10
2022-08-19T06:45:35.378Z,1.30
2022-08-19T06:48:04.037Z,1.20
2022-08-19T06:50:32.329Z,1.30
2022-08-19T06:53:01.374Z,1.30
2022-08-19T06:55:33.435Z,1.40
2022-08-19T06:58:05.752Z,1.30
2022-08-19T07:00:34.861Z,1.20
2022-08-19T07:03:07.653Z,1.30
2022-08-19T07:05:45.424Z,1.30
2022-08-19T07:08:14.934Z,1.40
2022-08-19T07:10:47.351Z,1.40
2022-08-19T07:13:15.628Z,1.30
2022-08-19T07:15:43.611Z,1.30
2022-08-19T07:18:11.927Z,1.30
2022-08-19T07:20:42.002Z,1.10
2022-08-19T07:23:11.209Z,1.10
2022-08-19T07:25:51.389Z,1.20
2022-08-19T07:28:24.128Z,1.20
2022-08-19T07:30:53.983Z,1.60
2022-08-19T07:33:23.615Z,1.00
2022-08-19T07:35:51.582Z,1.30
2022-08-19T07:38:19.497Z,1.60
2022-08-19T07:40:47.511Z,1.20
2022-08-19T07:43:17.390Z,1.10
2022-08-19T07:45:46.418Z,1.50
2022-08-19T07:48:15.408Z,1.40
2022-08-19T07:50:43.807Z,1.50
2022-08-19T07:53:13.320Z,4.00
2022-08-19T07:55:43.857Z,1.80
2022-08-19T07:58:16.359Z,1.60
2022-08-19T08:00:48.630Z,1.40
2022-08-19T08:03:20.037Z,1.40
2022-08-19T08:06:06.589Z,1.30
2022-08-19T08:08:53.010Z,1.50
2022-08-19T08:11:23.910Z,1.40
2022-08-19T08:16:47.313Z,1.40
2022-08-19T08:19:20.562Z,1.70
2022-08-19T08:21:57.485Z,1.30
2022-08-19T08:24:28.765Z,1.40
2022-08-19T08:26:58.692Z,1.80
2022-08-19T08:29:34.443Z,1.90
2022-08-19T08:32:04.564Z,2.10
2022-08-19T08:34:43.814Z,1.80
2022-08-19T08:37:11.775Z,1.70
2022-08-19T08:39:39.693Z,2.10
2022-08-19T08:42:37.267Z,2.30
2022-08-19T08:45:15.873Z,2.30
2022-08-19T08:47:53.219Z,2.60
2022-08-19T08:50:30.853Z,2.20
2022-08-19T08:52:59.823Z,2.50
2022-08-19T08:55:36.460Z,2.50
2022-08-19T08:58:19.049Z,3.00
2022-08-19T09:00:50.905Z,2.60
2022-08-19T09:03:27.279Z,3.10
2022-08-19T09:06:30.582Z,2.70
2022-08-19T09:09:35.892Z,2.80
2022-08-19T09:12:32.737Z,2.40
2022-08-19T09:15:13.041Z,2.60
2022-08-19T09:17:41.363Z,2.40
2022-08-19T09:20:10.396Z,2.10
2022-08-19T09:22:41.126Z,2.20
2022-08-19T09:25:11.915Z,2.50
2022-08-19T09:27:43.600Z,2.40
2022-08-19T09:30:23.640Z,2.40
2022-08-19T09:32:55.638Z,2.70
2022-08-19T09:35:29.716Z,2.40
2022-08-19T09:37:59.448Z,2.60
2022-08-19T09:40:30.606Z,2.30
2022-08-19T09:43:09.911Z,1.80
2022-08-19T09:45:39.742Z,2.00
2022-08-19T09:48:07.747Z,2.30
2022-08-19T09:50:39.537Z,2.40
2022-08-19T09:53:25.096Z,2.10
2022-08-19T09:55:56.551Z,1.90
2022-08-19T09:58:28.582Z,2.20
2022-08-19T10:00:59.473Z,2.20
2022-08-19T10:03:30.052Z,2.30
2022-08-19T10:06:01.634Z,2.30
2022-08-19T10:08:34.394Z,2.40
2022-08-19T10:11:28.509Z,2.50
2022-08-19T10:13:53.610Z,2.90
2022-08-19T10:16:29.237Z,2.20
2022-08-19T10:19:00.256Z,2.20
2022-08-19T10:21:35.282Z,2.50
2022-08-19T10:24:06.447Z,1.80
2022-08-19T10:29:09.277Z,2.40
2022-08-19T10:32:00.898Z,2.30
2022-08-19T10:34:28.183Z,2.40
2022-08-19T10:37:01.095Z,2.30
2022-08-19T10:39:33.675Z,2.40
2022-08-19T10:42:14.672Z,2.50
2022-08-19T10:44:43.333Z,2.70
2022-08-19T10:47:17.597Z,2.50
2022-08-19T10:50:14.240Z,2.20
2022-08-19T10:52:50.385Z,3.30
2022-08-19T10:55:42.197Z,2.90
2022-08-19T10:58:23.083Z,3.00
2022-08-19T11:00:57.908Z,2.40
2022-08-19T11:03:31.611Z,2.40
2022-08-19T11:06:08.743Z,2.50
2022-08-19T11:08:38.854Z,3.00
2022-08-19T11:11:09.122Z,2.90
2022-08-19T11:13:40.970Z,2.30
2022-08-19T11:16:14.939Z,1.90
2022-08-19T11:18:49.214Z,2.30
2022-08-19T11:21:35.601Z,2.10
2022-08-19T11:24:22.428Z,2.10
2022-08-19T11:26:54.234Z,2.00
2022-08-19T11:29:23.027Z,2.50
2022-08-19T11:31:51.155Z,2.20
2022-08-19T11:34:24.246Z,2.20
2022-08-19T11:36:52.877Z,2.10
2022-08-19T11:39:23.496Z,2.10
2022-08-19T11:41:52.096Z,2.50
2022-08-19T11:44:20.199Z,2.10
2022-08-19T11:46:48.582Z,2.20
2022-08-19T11:49:22.208Z,2.40
2022-08-19T11:51:51.688Z,2.00
2022-08-19T11:54:22.118Z,2.50
2022-08-19T11:56:50.109Z,1.80
2022-08-19T11:59:18.098Z,1.60
2022-08-19T12:01:46.244Z,1.70
2022-08-19T12:04:14.682Z,2.10
2022-08-19T12:06:42.791Z,1.50
2022-08-19T12:09:11.924Z,1.60
2022-08-19T12:11:41.578Z,1.70
2022-08-19T12:14:15.143Z,1.60
2022-08-19T12:16:51.182Z,1.60
2022-08-19T12:19:22.524Z,2.00
2022-08-19T12:21:52.598Z,1.40
2022-08-19T12:24:24.229Z,2.10
2022-08-19T12:26:53.631Z,1.90
2022-08-19T12:29:29.342Z,1.70
2022-08-19T12:32:02.229Z,1.80
2022-08-19T12:34:33.615Z,1.50
2022-08-19T12:37:04.696Z,1.90
2022-08-19T12:39:40.626Z,1.90
2022-08-19T12:42:11.590Z,1.80
2022-08-19T12:47:14.756Z,2.00
2022-08-19T12:49:53.339Z,2.50
2022-08-19T12:52:25.570Z,2.00
2022-08-19T12:54:56.774Z,1.60
2022-08-19T12:57:33.033Z,1.80
2022-08-19T13:00:12.885Z,1.40
2022-08-19T13:02:47.546Z,1.60
2022-08-19T13:05:24.014Z,1.70
2022-08-19T13:07:56.980Z,2.00
2022-08-19T13:10:35.580Z,1.50
2022-08-19T13:13:10.832Z,1.60
2022-08-19T13:15:44.008Z,2.00
2022-08-19T13:18:13.649Z,1.40
2022-08-19T13:20:42.502Z,1.80
2022-08-19T13:23:20.956Z,1.70
2022-08-19T13:26:01.654Z,1.80
2022-08-19T13:28:50.288Z,1.90
2022-08-19T13:31:46.206Z,1.70
2022-08-19T13:34:15.875Z,1.50
2022-08-19T13:36:44.538Z,2.20
2022-08-19T13:39:13.503Z,1.90
2022-08-19T13:41:50.892Z,1.90
2022-08-19T13:44:20.435Z,1.70
2022-08-19T13:46:54.229Z,1.80
2022-08-19T13:49:24.154Z,2.20
2022-08-19T13:51:52.466Z,2.70
2022-08-19T13:54:20.750Z,2.40
2022-08-19T13:56:48.868Z,3.20
2022-08-19T13:59:17.195Z,2.40
2022-08-19T14:01:46.222Z,2.10
2022-08-19T14:04:14.131Z,1.90
2022-08-19T14:06:41.897Z,2.20
2022-08-19T14:09:09.748Z,2.20
2022-08-19T14:11:38.341Z,2.30
2022-08-19T14:14:06.532Z,2.20
2022-08-19T14:16:34.596Z,1.60
2022-08-19T14:19:02.598Z,1.80
2022-08-19T14:21:30.401Z,2.00
2022-08-19T14:23:58.287Z,1.60
2022-08-19T14:26:26.227Z,1.70
2022-08-19T14:28:55.464Z,1.50
2022-08-19T14:31:27.833Z,1.80
2022-08-19T14:33:58.507Z,1.70
2022-08-19T14:36:26.310Z,1.70
2022-08-19T14:38:54.242Z,1.80
2022-08-19T14:41:24.739Z,1.80
2022-08-19T14:43:54.938Z,2.10
2022-08-19T14:46:29.470Z,2.00
2022-08-19T14:48:57.847Z,2.00
2022-08-19T14:51:28.340Z,1.60
2022-08-19T14:53:57.163Z,1.70
2022-08-19T14:56:31.344Z,1.40
2022-08-19T14:59:01.985Z,1.70
2022-08-19T15:01:30.059Z,2.50
2022-08-19T15:03:57.978Z,1.50
2022-08-19T15:06:26.537Z,1.90
2022-08-19T15:08:55.227Z,1.80
2022-08-19T15:11:28.582Z,1.90
2022-08-19T15:13:57.691Z,1.70
2022-08-19T15:16:27.566Z,1.70
2022-08-19T15:18:59.940Z,1.80
2022-08-19T15:21:30.359Z,2.20
2022-08-19T15:24:00.201Z,1.80
2022-08-19T15:26:32.449Z,1.60
2022-08-19T15:29:02.547Z,1.90
2022-08-19T15:31:36.482Z,2.00
2022-08-19T15:34:07.408Z,2.20
2022-08-19T15:36:36.877Z,1.80
2022-08-19T15:39:07.321Z,2.40
2022-08-19T15:41:37.139Z,2.10
2022-08-19T15:44:13.231Z,1.60
2022-08-19T15:46:45.369Z,2.00
2022-08-19T15:49:17.470Z,2.20
2022-08-19T15:51:49.347Z,2.80
2022-08-19T15:54:21.771Z,2.00
2022-08-19T15:57:11.480Z,3.20
2022-08-19T16:00:00.104Z,2.70
2022-08-19T16:02:53.517Z,2.50
2022-08-19T16:05:45.534Z,3.30
2022-08-19T16:08:13.691Z,2.10
2022-08-19T16:10:41.633Z,1.60
2022-08-19T16:13:10.948Z,2.30
2022-08-19T16:15:42.026Z,1.80
2022-08-19T16:20:37.611Z,2.70
2022-08-19T16:23:05.486Z,1.90
2022-08-19T16:25:33.688Z,1.70
2022-08-19T16:28:07.423Z,1.90
2022-08-19T16:30:39.661Z,1.80
2022-08-19T16:33:09.523Z,2.00
2022-08-19T16:35:37.932Z,3.90
2022-08-19T16:38:07.100Z,2.10
2022-08-19T16:40:35.830Z,1.70
2022-08-19T16:43:05.360Z,1.90
2022-08-19T16:45:33.219Z,1.90
2022-08-19T16:48:01.182Z,1.60
2022-08-19T16:50:48.260Z,1.90
2022-08-19T16:53:22.382Z,1.70
2022-08-19T16:55:51.294Z,1.70
2022-08-19T16:58:22.347Z,2.00
2022-08-19T17:01:03.263Z,1.70
2022-08-19T17:03:36.783Z,1.60
2022-08-19T17:06:17.844Z,2.20
2022-08-19T17:08:54.403Z,1.80
2022-08-19T17:11:25.526Z,1.90
2022-08-19T17:13:55.502Z,1.90
2022-08-19T17:16:29.019Z,1.80
2022-08-19T17:19:01.091Z,1.90
2022-08-19T17:21:33.139Z,2.30
2022-08-19T17:24:05.049Z,1.90
2022-08-19T17:26:33.091Z,1.90
2022-08-19T17:29:01.061Z,2.50
2022-08-19T17:31:31.686Z,1.90
2022-08-19T17:34:01.187Z,2.20
2022-08-19T17:36:34.105Z,2.40
2022-08-19T17:39:05.083Z,2.50
2022-08-19T17:44:04.203Z,2.10
2022-08-19T17:46:32.516Z,2.40
2022-08-19T17:49:00.695Z,2.10
2022-08-19T17:51:35.015Z,2.80
2022-08-19T17:54:05.559Z,2.40
2022-08-19T17:56:33.458Z,2.40
2022-08-19T17:59:01.653Z,2.40
2022-08-19T18:01:43.794Z,2.30
2022-08-19T18:04:19.796Z,1.80
2022-08-19T18:06:53.825Z,2.10
2022-08-19T18:09:38.742Z,2.30
2022-08-19T18:12:13.419Z,1.90
2022-08-19T18:14:42.036Z,2.00
2022-08-19T18:17:13.586Z,1.80
2022-08-19T18:19:44.025Z,1.90
2022-08-19T18:24:51.057Z,2.20
2022-08-19T18:27:18.981Z,2.10
2022-08-19T18:29:47.276Z,2.70
2022-08-19T18:32:23.625Z,2.30
2022-08-19T18:34:53.396Z,2.30
2022-08-19T18:37:22.535Z,2.40
2022-08-19T18:40:09.190Z,2.30
2022-08-19T18:43:02.569Z,2.00
2022-08-19T18:45:51.352Z,1.90
2022-08-19T18:48:38.154Z,2.40
2022-08-19T18:51:07.251Z,2.40
2022-08-19T18:53:38.447Z,2.60
2022-08-19T18:58:39.094Z,2.10
2022-08-19T19:01:15.503Z,2.20
2022-08-19T19:03:49.464Z,2.40
2022-08-19T19:06:26.316Z,2.50
2022-08-19T19:08:57.861Z,2.70
2022-08-19T19:11:36.269Z,3.50
2022-08-19T19:14:19.216Z,2.90
2022-08-19T19:16:51.788Z,3.30
2022-08-19T19:19:24.057Z,3.00
2022-08-19T19:21:53.159Z,2.80
2022-08-19T19:24:29.771Z,2.90
2022-08-19T19:27:01.262Z,2.50
2022-08-19T19:29:29.206Z,2.00
2022-08-19T19:31:57.118Z,2.50
2022-08-19T19:34:29.783Z,2.30
2022-08-19T19:36:57.926Z,2.30
2022-08-19T19:39:45.262Z,2.30
2022-08-19T19:42:21.452Z,2.80
2022-08-19T19:44:55.225Z,2.30
2022-08-19T19:47:24.505Z,2.30
2022-08-19T19:52:42.774Z,2.30
2022-08-19T19:55:18.131Z,2.40
2022-08-19T19:57:48.713Z,1.90
2022-08-19T20:00:19.082Z,2.00
2022-08-19T20:02:50.392Z,1.90
2022-08-19T20:05:23.818Z,2.30
2022-08-19T20:08:30.587Z,2.20
2022-08-19T20:11:03.680Z,1.90
2022-08-19T20:13:33.416Z,1.80
2022-08-19T20:16:03.814Z,2.10
2022-08-19T20:18:31.798Z,1.90
2022-08-19T20:21:00.663Z,2.50
2022-08-19T20:23:28.550Z,2.20
2022-08-19T20:25:56.422Z,1.80
2022-08-19T20:28:24.961Z,1.90
2022-08-19T20:30:54.071Z,2.00
2022-08-19T20:33:22.037Z,2.00
2022-08-19T20:35:49.870Z,2.20
2022-08-19T20:38:18.100Z,2.10
2022-08-19T20:40:46.537Z,2.20
2022-08-19T20:43:15.045Z,1.70
2022-08-19T20:45:43.085Z,1.50
2022-08-19T20:48:12.511Z,2.00
2022-08-19T20:50:40.848Z,1.80
2022-08-19T20:53:19.844Z,1.70
2022-08-19T20:55:49.656Z,1.80
2022-08-19T20:58:21.292Z,2.20
2022-08-19T21:00:50.439Z,1.80
2022-08-19T21:03:22.799Z,2.00
2022-08-19T21:05:50.905Z,1.90
2022-08-19T21:08:19.606Z,2.10
2022-08-19T21:10:51.403Z,1.60
2022-08-19T21:13:21.911Z,1.90
2022-08-19T21:15:50.535Z,1.90
2022-08-19T21:18:21.653Z,2.10
